Time;durP1;ratioP1;P1;durP2;ratioP2;P2;SDS_P1;SDS_P2;PMS_P1;PMS_P2;Temp;Humidity;BMP_temperature;BMP_pressure;BME280_temperature;BME280_humidity;BME280_pressure;Samples;Min_cycle;Max_cycle;Signal;HPM_P1;HPM_P2
2023/08/02 00:01:01;;;;;;;3.73;2.40;;;;;;;;;;4986929;28;20611;-51
2023/08/02 00:03:27;;;;;;;4.17;2.20;;;;;;;;;;4988373;28;20585;-51
2023/08/02 00:05:57;;;;;;;4.00;2.60;;;;;;;;;;4989032;28;20194;-50
2023/08/02 00:08:26;;;;;;;2.97;1.83;;;;;;;;;;4987702;28;20567;-50
2023/08/02 00:10:53;;;;;;;3.00;2.10;;;;;;;;;;4984932;28;20218;-49
2023/08/02 00:13:19;;;;;;;2.03;1.93;;;;;;;;;;4988816;28;20589;-49
2023/08/02 00:15:45;;;;;;;2.57;2.00;;;;;;;;;;4988339;28;20753;-50
2023/08/02 00:18:11;;;;;;;2.83;2.00;;;;;;;;;;4986657;28;20167;-49
2023/08/02 00:20:38;;;;;;;3.97;2.07;;;;;;;;;;4996663;28;20183;-51
2023/08/02 00:23:05;;;;;;;4.33;2.00;;;;;;;;;;4985604;28;20178;-49
2023/08/02 00:25:31;;;;;;;2.43;2.23;;;;;;;;;;4986595;28;20849;-49
2023/08/02 00:27:57;;;;;;;2.57;2.20;;;;;;;;;;4987742;28;20635;-49
2023/08/02 00:30:23;;;;;;;3.57;2.67;;;;;;;;;;4995990;28;20231;-49
2023/08/02 00:32:50;;;;;;;3.40;2.20;;;;;;;;;;4986800;28;20186;-50
2023/08/02 00:35:16;;;;;;;3.67;2.13;;;;;;;;;;4986550;28;20184;-49
2023/08/02 00:37:43;;;;;;;2.47;2.07;;;;;;;;;;4995248;28;20227;-49
2023/08/02 00:40:09;;;;;;;2.33;2.00;;;;;;;;;;4988370;28;20643;-49
2023/08/02 00:42:35;;;;;;;2.83;2.63;;;;;;;;;;4985694;28;20197;-50
2023/08/02 00:45:03;;;;;;;2.60;2.20;;;;;;;;;;5003454;28;20271;-51
2023/08/02 00:47:30;;;;;;;3.30;2.33;;;;;;;;;;4987539;28;20270;-51
2023/08/02 00:49:56;;;;;;;4.70;2.60;;;;;;;;;;4991365;28;20207;-51
2023/08/02 00:52:23;;;;;;;3.77;2.30;;;;;;;;;;4984393;28;20325;-51
2023/08/02 00:54:49;;;;;;;3.00;2.10;;;;;;;;;;4987404;28;20830;-51
2023/08/02 00:57:15;;;;;;;3.50;2.33;;;;;;;;;;4987386;28;20211;-51
2023/08/02 00:59:41;;;;;;;2.20;1.90;;;;;;;;;;4988509;28;20214;-51
2023/08/02 01:02:07;;;;;;;4.20;2.20;;;;;;;;;;4986675;28;20257;-52
2023/08/02 01:04:34;;;;;;;4.30;2.33;;;;;;;;;;4993174;28;20190;-52
2023/08/02 01:07:05;;;;;;;3.63;2.23;;;;;;;;;;4987346;28;20226;-54
2023/08/02 01:09:36;;;;;;;2.63;2.17;;;;;;;;;;4987015;28;20297;-52
2023/08/02 01:12:05;;;;;;;2.40;2.20;;;;;;;;;;4990198;28;20178;-52
2023/08/02 01:14:33;;;;;;;2.57;2.10;;;;;;;;;;4990570;28;20180;-52
2023/08/02 01:16:59;;;;;;;2.53;2.07;;;;;;;;;;5000122;28;20541;-52
2023/08/02 01:19:25;;;;;;;3.00;2.13;;;;;;;;;;4990322;28;20214;-52
2023/08/02 01:21:51;;;;;;;3.00;2.47;;;;;;;;;;4995387;28;20187;-53
2023/08/02 01:24:18;;;;;;;5.20;2.50;;;;;;;;;;4991460;28;20198;-52
2023/08/02 01:26:46;;;;;;;2.87;2.20;;;;;;;;;;4990838;28;20238;-51
2023/08/02 01:34:17;;;;;;;2.43;1.73;;;;;;;;;;4972197;28;20630;-51
2023/08/02 01:36:43;;;;;;;2.57;2.33;;;;;;;;;;5029773;28;20662;-51
2023/08/02 01:39:09;;;;;;;2.27;2.07;;;;;;;;;;5028423;28;20210;-51
2023/08/02 01:41:35;;;;;;;3.53;2.07;;;;;;;;;;5030591;28;20197;-51
2023/08/02 01:44:01;;;;;;;3.47;2.30;;;;;;;;;;5029577;28;20189;-51
2023/08/02 01:46:27;;;;;;;3.40;2.33;;;;;;;;;;5028768;28;20653;-51
2023/08/02 01:48:53;;;;;;;2.20;2.00;;;;;;;;;;5028880;28;20717;-51
2023/08/02 01:51:19;;;;;;;2.07;1.87;;;;;;;;;;5029015;28;20190;-51
2023/08/02 01:53:45;;;;;;;2.10;1.73;;;;;;;;;;5029101;28;20251;-51
2023/08/02 01:56:11;;;;;;;2.63;2.03;;;;;;;;;;5028370;28;20526;-51
2023/08/02 01:58:37;;;;;;;3.70;2.20;;;;;;;;;;5028472;28;20813;-51
2023/08/02 02:01:03;;;;;;;2.50;1.90;;;;;;;;;;5028979;28;20657;-51
2023/08/02 02:03:29;;;;;;;4.50;2.07;;;;;;;;;;5036299;28;20201;-51
2023/08/02 02:05:55;;;;;;;3.77;2.40;;;;;;;;;;5030069;28;20736;-51
2023/08/02 02:08:22;;;;;;;2.60;1.90;;;;;;;;;;5028799;28;20190;-51
2023/08/02 02:10:52;;;;;;;3.60;1.90;;;;;;;;;;5028473;28;20637;-51
2023/08/02 02:13:19;;;;;;;4.23;2.13;;;;;;;;;;5026610;28;20557;-51
2023/08/02 02:15:45;;;;;;;3.87;1.73;;;;;;;;;;5028192;28;20198;-51
2023/08/02 02:18:11;;;;;;;3.00;2.20;;;;;;;;;;5026972;28;20683;-51
2023/08/02 02:20:37;;;;;;;2.67;2.40;;;;;;;;;;5028700;28;20256;-51
2023/08/02 02:23:03;;;;;;;2.27;2.07;;;;;;;;;;5027100;28;20719;-51
2023/08/02 02:25:29;;;;;;;1.90;1.80;;;;;;;;;;5028453;28;20566;-51
2023/08/02 02:27:55;;;;;;;3.97;2.10;;;;;;;;;;5025472;28;20190;-51
2023/08/02 02:30:22;;;;;;;3.40;2.03;;;;;;;;;;5010589;28;20320;-51
2023/08/02 02:32:48;;;;;;;2.43;1.87;;;;;;;;;;5027324;28;20193;-51
2023/08/02 02:35:14;;;;;;;4.03;2.27;;;;;;;;;;5025534;28;20217;-51
2023/08/02 02:37:40;;;;;;;2.50;1.90;;;;;;;;;;5025266;28;20198;-49
2023/08/02 02:40:07;;;;;;;2.77;2.37;;;;;;;;;;5028543;28;20213;-49
2023/08/02 02:42:33;;;;;;;2.57;1.87;;;;;;;;;;5009505;28;20194;-52
2023/08/02 02:44:59;;;;;;;2.53;2.33;;;;;;;;;;5026825;28;20200;-52
2023/08/02 02:47:25;;;;;;;4.40;2.27;;;;;;;;;;5025886;28;20201;-52
2023/08/02 02:49:51;;;;;;;4.57;2.33;;;;;;;;;;5023381;28;20224;-52
2023/08/02 02:52:17;;;;;;;3.07;2.00;;;;;;;;;;5027612;28;20194;-52
2023/08/02 02:54:43;;;;;;;4.37;2.57;;;;;;;;;;5028401;28;20601;-52
2023/08/02 02:57:10;;;;;;;2.43;2.20;;;;;;;;;;5027291;28;20185;-52
2023/08/02 02:59:36;;;;;;;2.87;2.10;;;;;;;;;;5026802;28;20522;-52
2023/08/02 03:02:02;;;;;;;3.63;2.30;;;;;;;;;;5026730;28;20198;-51
2023/08/02 03:04:28;;;;;;;5.20;2.20;;;;;;;;;;5026531;28;20627;-52
2023/08/02 03:06:54;;;;;;;2.93;2.27;;;;;;;;;;5025604;28;20186;-52
2023/08/02 03:09:20;;;;;;;4.20;2.43;;;;;;;;;;5026300;28;20284;-52
2023/08/02 03:11:47;;;;;;;3.73;2.23;;;;;;;;;;5027981;28;20198;-52
2023/08/02 03:14:13;;;;;;;4.33;3.23;;;;;;;;;;5026719;28;20186;-52
2023/08/02 03:16:42;;;;;;;3.33;3.03;;;;;;;;;;5029760;28;20621;-52
2023/08/02 03:19:09;;;;;;;4.53;2.30;;;;;;;;;;5027431;28;20200;-52
2023/08/02 03:21:35;;;;;;;3.07;2.20;;;;;;;;;;5026978;28;20193;-52
2023/08/02 03:24:01;;;;;;;4.90;2.23;;;;;;;;;;5028247;28;20205;-52
2023/08/02 03:26:27;;;;;;;5.30;2.40;;;;;;;;;;5027397;28;20191;-52
2023/08/02 03:28:53;;;;;;;2.37;2.17;;;;;;;;;;5027748;28;20243;-52
2023/08/02 03:31:19;;;;;;;3.10;2.70;;;;;;;;;;5028806;28;20575;-52
2023/08/02 03:33:45;;;;;;;3.23;2.10;;;;;;;;;;5026625;28;20661;-52
2023/08/02 03:36:11;;;;;;;3.80;2.53;;;;;;;;;;5023737;28;20321;-52
2023/08/02 03:38:37;;;;;;;3.93;2.37;;;;;;;;;;5024971;28;20293;-52
2023/08/02 03:41:03;;;;;;;3.30;2.50;;;;;;;;;;5023522;28;20284;-52
2023/08/02 03:43:29;;;;;;;2.83;2.53;;;;;;;;;;5027598;28;20225;-52
2023/08/02 03:45:55;;;;;;;2.57;2.33;;;;;;;;;;5028096;28;20225;-52
2023/08/02 03:48:21;;;;;;;4.63;2.07;;;;;;;;;;5027887;28;20197;-49
2023/08/02 03:50:48;;;;;;;3.77;2.03;;;;;;;;;;5025762;28;20271;-49
2023/08/02 03:53:14;;;;;;;3.53;2.60;;;;;;;;;;5026312;28;20217;-49
2023/08/02 03:55:40;;;;;;;4.03;2.20;;;;;;;;;;5027646;28;20190;-49
2023/08/02 03:58:06;;;;;;;2.90;2.30;;;;;;;;;;5025402;28;20433;-49
2023/08/02 04:00:32;;;;;;;4.77;2.80;;;;;;;;;;5025022;28;20216;-48
2023/08/02 04:02:58;;;;;;;2.73;2.20;;;;;;;;;;5025682;28;20284;-49
2023/08/02 04:05:24;;;;;;;3.23;2.43;;;;;;;;;;5025575;28;20192;-49
2023/08/02 04:07:50;;;;;;;4.83;2.57;;;;;;;;;;5025274;28;20202;-48
2023/08/02 04:10:16;;;;;;;3.23;2.53;;;;;;;;;;5025208;28;20497;-49
2023/08/02 04:12:42;;;;;;;2.70;2.23;;;;;;;;;;5023348;28;20201;-49
2023/08/02 04:15:08;;;;;;;2.60;2.23;;;;;;;;;;5025507;28;20194;-50
2023/08/02 04:17:35;;;;;;;3.47;2.23;;;;;;;;;;5026087;28;20186;-55
2023/08/02 04:20:02;;;;;;;2.67;2.00;;;;;;;;;;5026177;28;20194;-49
2023/08/02 04:22:31;;;;;;;4.40;2.30;;;;;;;;;;5021287;28;20197;-50
2023/08/02 04:24:57;;;;;;;3.53;2.23;;;;;;;;;;5024760;28;20235;-50
2023/08/02 04:27:23;;;;;;;3.27;2.43;;;;;;;;;;5026981;28;20223;-49
2023/08/02 04:29:49;;;;;;;3.47;2.53;;;;;;;;;;5026792;28;20222;-49
2023/08/02 04:32:16;;;;;;;3.90;2.53;;;;;;;;;;5024862;28;20186;-50
2023/08/02 04:34:42;;;;;;;2.50;2.17;;;;;;;;;;5025764;28;20225;-49
2023/08/02 04:37:09;;;;;;;3.57;2.10;;;;;;;;;;5026399;28;20197;-51
2023/08/02 04:39:35;;;;;;;3.93;2.10;;;;;;;;;;5026676;28;20200;-50
2023/08/02 04:42:01;;;;;;;3.13;2.50;;;;;;;;;;5026725;28;20337;-49
2023/08/02 04:44:27;;;;;;;2.90;2.20;;;;;;;;;;5027467;28;20194;-50
2023/08/02 04:46:54;;;;;;;3.67;2.50;;;;;;;;;;5029690;28;20205;-49
2023/08/02 04:49:20;;;;;;;2.40;2.07;;;;;;;;;;5029680;28;20213;-49
2023/08/02 04:51:46;;;;;;;2.73;1.93;;;;;;;;;;5028783;28;20193;-49
2023/08/02 04:54:12;;;;;;;2.77;2.50;;;;;;;;;;5030318;28;20182;-49
2023/08/02 04:56:38;;;;;;;2.83;2.17;;;;;;;;;;5028723;28;20660;-49
2023/08/02 04:59:07;;;;;;;2.10;1.90;;;;;;;;;;5028435;28;20191;-52
2023/08/02 05:01:33;;;;;;;4.13;1.97;;;;;;;;;;5027082;28;20196;-52
2023/08/02 05:03:59;;;;;;;3.03;2.23;;;;;;;;;;5028238;28;20189;-52
2023/08/02 05:06:26;;;;;;;3.10;2.30;;;;;;;;;;5025301;28;20205;-52
2023/08/02 05:08:52;;;;;;;4.27;2.40;;;;;;;;;;5030356;28;20217;-54
2023/08/02 05:11:19;;;;;;;2.30;2.10;;;;;;;;;;5029626;28;20190;-53
2023/08/02 05:13:45;;;;;;;3.27;2.50;;;;;;;;;;5029317;28;20190;-53
2023/08/02 05:16:14;;;;;;;3.87;2.27;;;;;;;;;;5030525;28;20260;-52
2023/08/02 05:18:41;;;;;;;4.17;2.20;;;;;;;;;;5023851;28;20193;-53
2023/08/02 05:21:13;;;;;;;2.40;2.20;;;;;;;;;;5027339;28;20205;-52
2023/08/02 05:23:42;;;;;;;3.63;2.20;;;;;;;;;;5028322;28;20292;-53
2023/08/02 05:26:09;;;;;;;5.57;2.50;;;;;;;;;;5029743;28;20190;-52
2023/08/02 05:28:36;;;;;;;2.37;2.17;;;;;;;;;;5025060;28;20217;-52
2023/08/02 05:31:02;;;;;;;3.07;2.50;;;;;;;;;;5026044;28;20241;-52
2023/08/02 05:33:28;;;;;;;2.83;2.10;;;;;;;;;;5026645;28;20194;-52
2023/08/02 05:35:54;;;;;;;2.13;1.90;;;;;;;;;;5026215;28;20605;-53
2023/08/02 05:38:21;;;;;;;2.70;2.30;;;;;;;;;;5032321;28;20280;-52
2023/08/02 05:40:47;;;;;;;4.63;2.53;;;;;;;;;;5030162;28;20224;-53
2023/08/02 05:43:13;;;;;;;3.17;2.40;;;;;;;;;;5028375;28;20190;-53
2023/08/02 05:45:39;;;;;;;2.50;2.30;;;;;;;;;;5028450;28;20204;-52
2023/08/02 05:48:05;;;;;;;2.37;2.10;;;;;;;;;;5029232;28;20273;-53
2023/08/02 05:50:32;;;;;;;2.43;2.17;;;;;;;;;;5027486;28;20255;-52
2023/08/02 05:52:58;;;;;;;5.50;2.70;;;;;;;;;;5020480;28;20186;-52
2023/08/02 05:55:24;;;;;;;3.53;2.33;;;;;;;;;;5028481;28;20189;-52
2023/08/02 05:57:51;;;;;;;2.20;2.00;;;;;;;;;;5027038;28;20190;-53
2023/08/02 06:00:17;;;;;;;3.60;2.33;;;;;;;;;;5028314;28;20198;-52
2023/08/02 06:02:44;;;;;;;2.83;2.50;;;;;;;;;;5029182;28;20708;-52
2023/08/02 06:05:10;;;;;;;2.97;2.67;;;;;;;;;;5030368;28;20280;-53
2023/08/02 06:07:36;;;;;;;7.40;2.90;;;;;;;;;;5026135;28;20416;-52
2023/08/02 06:10:02;;;;;;;3.07;2.53;;;;;;;;;;5029198;28;20258;-52
2023/08/02 06:12:28;;;;;;;3.07;2.77;;;;;;;;;;5028279;28;20248;-53
2023/08/02 06:14:54;;;;;;;3.03;2.73;;;;;;;;;;5028075;28;20205;-52
2023/08/02 06:17:21;;;;;;;2.33;2.13;;;;;;;;;;5027040;28;20190;-52
2023/08/02 06:19:47;;;;;;;3.53;2.70;;;;;;;;;;5030307;28;20194;-53
2023/08/02 06:22:16;;;;;;;2.70;2.50;;;;;;;;;;5028226;28;20189;-53
2023/08/02 06:24:43;;;;;;;4.17;2.63;;;;;;;;;;5029279;28;20645;-53
2023/08/02 06:27:09;;;;;;;3.70;2.60;;;;;;;;;;5025567;28;20562;-53
2023/08/02 06:29:35;;;;;;;3.17;2.57;;;;;;;;;;5028705;28;20636;-53
2023/08/02 06:32:02;;;;;;;3.53;2.80;;;;;;;;;;5026550;28;20209;-53
2023/08/02 06:34:28;;;;;;;3.20;2.73;;;;;;;;;;5026046;28;20198;-53
2023/08/02 06:36:54;;;;;;;5.10;2.83;;;;;;;;;;5025935;28;20243;-54
2023/08/02 06:39:20;;;;;;;4.07;2.60;;;;;;;;;;5022310;28;20194;-54
2023/08/02 06:41:46;;;;;;;4.03;3.57;;;;;;;;;;5025916;28;20204;-55
2023/08/02 06:44:13;;;;;;;4.03;2.93;;;;;;;;;;5022512;28;20206;-54
2023/08/02 06:46:40;;;;;;;3.60;3.20;;;;;;;;;;5022823;28;20235;-55
2023/08/02 06:49:06;;;;;;;3.47;3.17;;;;;;;;;;5024401;28;20217;-55
2023/08/02 06:51:32;;;;;;;6.67;3.27;;;;;;;;;;5027686;28;20247;-54
2023/08/02 06:53:59;;;;;;;4.03;2.83;;;;;;;;;;5027942;28;20785;-54
2023/08/02 06:56:25;;;;;;;4.10;3.27;;;;;;;;;;5027035;28;20327;-55
2023/08/02 06:58:51;;;;;;;4.40;3.20;;;;;;;;;;5022171;28;20198;-55
2023/08/02 07:01:18;;;;;;;4.87;3.47;;;;;;;;;;5021845;28;20272;-56
2023/08/02 07:03:45;;;;;;;3.67;3.23;;;;;;;;;;5019879;28;20194;-55
2023/08/02 07:06:12;;;;;;;3.60;3.30;;;;;;;;;;5022403;28;20221;-55
2023/08/02 07:08:38;;;;;;;9.33;5.17;;;;;;;;;;5028030;28;20252;-55
2023/08/02 07:11:05;;;;;;;4.60;3.20;;;;;;;;;;5024231;28;20182;-55
2023/08/02 07:13:35;;;;;;;4.73;3.10;;;;;;;;;;5022131;28;20720;-56
2023/08/02 07:16:01;;;;;;;4.50;3.60;;;;;;;;;;5024327;28;20457;-56
2023/08/02 07:18:28;;;;;;;4.07;3.37;;;;;;;;;;5020729;28;20604;-55
2023/08/02 07:20:54;;;;;;;4.17;3.00;;;;;;;;;;5021638;28;20190;-55
2023/08/02 07:23:20;;;;;;;4.53;3.20;;;;;;;;;;5024170;28;20195;-55
2023/08/02 07:25:46;;;;;;;3.53;3.13;;;;;;;;;;5022608;28;20220;-55
2023/08/02 07:28:12;;;;;;;7.07;3.30;;;;;;;;;;5021427;28;20710;-56
2023/08/02 07:30:38;;;;;;;3.73;2.73;;;;;;;;;;5023400;28;20229;-56
2023/08/02 07:33:04;;;;;;;3.40;3.10;;;;;;;;;;5007213;28;20248;-56
2023/08/02 07:35:30;;;;;;;3.93;3.23;;;;;;;;;;5025568;28;20248;-56
2023/08/02 07:37:57;;;;;;;4.90;3.00;;;;;;;;;;5024283;28;20182;-54
2023/08/02 07:40:23;;;;;;;3.03;2.53;;;;;;;;;;5023185;28;20540;-53
2023/08/02 07:42:49;;;;;;;2.87;2.57;;;;;;;;;;5001355;28;20196;-53
2023/08/02 07:45:16;;;;;;;4.03;2.50;;;;;;;;;;5023215;28;20332;-53
2023/08/02 07:47:42;;;;;;;2.73;2.37;;;;;;;;;;5024693;28;22061;-53
2023/08/02 07:50:09;;;;;;;2.83;2.53;;;;;;;;;;5020614;28;20205;-53
2023/08/02 07:52:35;;;;;;;3.67;2.20;;;;;;;;;;5016210;28;20300;-53
2023/08/02 07:55:01;;;;;;;2.83;2.63;;;;;;;;;;5004592;28;20248;-53
2023/08/02 07:57:30;;;;;;;3.80;2.60;;;;;;;;;;5024560;28;20183;-53
2023/08/02 07:59:57;;;;;;;2.40;2.20;;;;;;;;;;5020391;28;20202;-53
2023/08/02 08:02:25;;;;;;;2.90;2.50;;;;;;;;;;5024231;28;20201;-53
2023/08/02 08:04:51;;;;;;;2.57;2.37;;;;;;;;;;5029434;28;20638;-52
2023/08/02 08:07:17;;;;;;;3.00;2.33;;;;;;;;;;5022654;28;20550;-53
2023/08/02 08:09:43;;;;;;;2.73;2.50;;;;;;;;;;5025519;28;20221;-53
2023/08/02 08:12:13;;;;;;;2.70;2.50;;;;;;;;;;5026168;28;20633;-52
2023/08/02 08:14:39;;;;;;;3.23;2.50;;;;;;;;;;5017328;28;20189;-52
2023/08/02 08:17:06;;;;;;;2.33;2.10;;;;;;;;;;5025450;28;20215;-53
2023/08/02 08:19:33;;;;;;;2.17;2.07;;;;;;;;;;5025239;28;20198;-52
2023/08/02 08:21:59;;;;;;;2.43;2.17;;;;;;;;;;5032911;28;20193;-52
2023/08/02 08:24:25;;;;;;;3.27;2.20;;;;;;;;;;5010560;28;20614;-53
2023/08/02 08:26:51;;;;;;;4.33;2.60;;;;;;;;;;5027557;28;20558;-52
2023/08/02 08:29:18;;;;;;;2.90;2.70;;;;;;;;;;5012804;28;20542;-52
2023/08/02 08:31:44;;;;;;;3.10;2.80;;;;;;;;;;5028919;28;20215;-52
2023/08/02 08:34:10;;;;;;;2.57;2.37;;;;;;;;;;5033279;28;20185;-52
2023/08/02 08:36:37;;;;;;;3.03;2.73;;;;;;;;;;5006001;28;20242;-53
2023/08/02 08:39:03;;;;;;;3.70;2.60;;;;;;;;;;5009279;28;20922;-52
2023/08/02 08:41:30;;;;;;;2.80;2.50;;;;;;;;;;5015592;28;20294;-52
2023/08/02 08:43:56;;;;;;;3.17;2.77;;;;;;;;;;5011136;28;20311;-52
2023/08/02 08:46:23;;;;;;;3.13;2.83;;;;;;;;;;4997141;28;20198;-52
2023/08/02 08:48:49;;;;;;;3.67;3.30;;;;;;;;;;5011806;28;20752;-56
2023/08/02 08:51:18;;;;;;;2.73;2.47;;;;;;;;;;5013614;28;20252;-55
2023/08/02 08:53:45;;;;;;;3.47;2.93;;;;;;;;;;5010534;28;20204;-56
2023/08/02 08:56:11;;;;;;;2.60;2.40;;;;;;;;;;4999639;28;20194;-56
2023/08/02 08:58:38;;;;;;;3.27;2.97;;;;;;;;;;5010601;28;20199;-55
2023/08/02 09:01:05;;;;;;;5.03;3.13;;;;;;;;;;5015116;28;20646;-55
2023/08/02 09:03:32;;;;;;;3.80;3.40;;;;;;;;;;5015583;28;20225;-56
2023/08/02 09:06:00;;;;;;;2.90;2.70;;;;;;;;;;5012795;28;20520;-56
2023/08/02 09:08:26;;;;;;;3.50;3.20;;;;;;;;;;5011210;28;20190;-55
2023/08/02 09:10:52;;;;;;;3.40;3.10;;;;;;;;;;5013310;28;20197;-56
2023/08/02 09:13:24;;;;;;;4.70;3.60;;;;;;;;;;5013491;28;20187;-55
2023/08/02 09:16:09;;;;;;;3.43;3.00;;;;;;;;;;5010341;28;20585;-55
2023/08/02 09:18:39;;;;;;;3.37;3.00;;;;;;;;;;5014580;28;20664;-55
2023/08/02 09:21:06;;;;;;;3.90;3.57;;;;;;;;;;5010307;28;20229;-55
2023/08/02 09:23:32;;;;;;;3.63;3.33;;;;;;;;;;5006405;28;20217;-55
2023/08/02 09:26:11;;;;;;;3.23;2.93;;;;;;;;;;5010381;28;20201;-55
2023/08/02 09:28:37;;;;;;;4.00;3.10;;;;;;;;;;5002723;28;20206;-55
2023/08/02 09:31:14;;;;;;;3.37;2.97;;;;;;;;;;5006212;28;20202;-55
2023/08/02 09:33:50;;;;;;;3.50;3.00;;;;;;;;;;5002827;28;20191;-55
2023/08/02 09:36:27;;;;;;;3.80;3.50;;;;;;;;;;5008898;28;20304;-55
2023/08/02 09:38:57;;;;;;;2.90;2.63;;;;;;;;;;5018456;28;20181;-55
2023/08/02 09:41:24;;;;;;;3.80;3.50;;;;;;;;;;5021869;28;20194;-55
2023/08/02 09:43:52;;;;;;;2.97;2.77;;;;;;;;;;5017172;28;20201;-55
2023/08/02 09:46:29;;;;;;;2.90;2.70;;;;;;;;;;5012863;28;21196;-55
2023/08/02 09:48:56;;;;;;;7.00;3.10;;;;;;;;;;5016349;28;20236;-54
2023/08/02 09:51:22;;;;;;;3.23;2.37;;;;;;;;;;5024211;28;20194;-55
2023/08/02 09:53:56;;;;;;;3.33;3.03;;;;;;;;;;5024436;28;20178;-55
2023/08/02 09:56:24;;;;;;;3.27;3.07;;;;;;;;;;5019102;28;20224;-55
2023/08/02 09:58:54;;;;;;;2.73;2.53;;;;;;;;;;5019909;28;20543;-54
2023/08/02 10:01:21;;;;;;;3.20;3.00;;;;;;;;;;5021767;28;20229;-53
2023/08/02 10:03:51;;;;;;;2.67;2.47;;;;;;;;;;5023183;28;20198;-53
2023/08/02 10:06:18;;;;;;;3.33;3.03;;;;;;;;;;5023640;28;20186;-53
2023/08/02 10:08:46;;;;;;;3.13;2.83;;;;;;;;;;5019196;28;20193;-55
2023/08/02 10:11:12;;;;;;;3.03;2.83;;;;;;;;;;5022986;28;20913;-55
2023/08/02 10:13:39;;;;;;;2.70;2.50;;;;;;;;;;5025457;28;20555;-55
2023/08/02 10:16:05;;;;;;;2.70;2.50;;;;;;;;;;5026475;28;20653;-56
2023/08/02 10:18:33;;;;;;;3.10;2.77;;;;;;;;;;5019498;28;20264;-53
2023/08/02 10:21:01;;;;;;;3.93;2.43;;;;;;;;;;5017979;28;20178;-55
2023/08/02 10:23:27;;;;;;;2.70;2.50;;;;;;;;;;5017405;28;20626;-54
2023/08/02 10:25:54;;;;;;;4.67;2.37;;;;;;;;;;5003724;28;20289;-53
2023/08/02 10:28:20;;;;;;;3.03;2.83;;;;;;;;;;5017025;28;20688;-54
2023/08/02 10:30:46;;;;;;;2.70;2.50;;;;;;;;;;5018100;28;20647;-54
2023/08/02 10:33:20;;;;;;;3.60;2.43;;;;;;;;;;5025459;28;20549;-54
2023/08/02 10:36:06;;;;;;;2.23;2.13;;;;;;;;;;5017734;28;20213;-54
2023/08/02 10:38:35;;;;;;;2.50;2.30;;;;;;;;;;5018196;28;20578;-55
2023/08/02 10:41:05;;;;;;;5.23;2.40;;;;;;;;;;5024415;28;20596;-54
2023/08/02 10:43:32;;;;;;;3.50;2.40;;;;;;;;;;5025481;28;20197;-56
2023/08/02 10:46:17;;;;;;;3.03;2.50;;;;;;;;;;5026148;28;20244;-55
2023/08/02 10:48:43;;;;;;;3.00;2.57;;;;;;;;;;5024166;28;20658;-53
2023/08/02 10:51:28;;;;;;;6.53;3.00;;;;;;;;;;5027592;28;20208;-55
2023/08/02 10:54:12;;;;;;;3.63;1.93;;;;;;;;;;5020908;28;20189;-55
2023/08/02 10:57:03;;;;;;;2.37;2.17;;;;;;;;;;5006490;28;20724;-54
2023/08/02 10:59:29;;;;;;;1.97;1.83;;;;;;;;;;5010586;28;20202;-54
2023/08/02 11:02:11;;;;;;;2.20;1.87;;;;;;;;;;5019480;28;20205;-55
2023/08/02 11:04:41;;;;;;;2.20;2.07;;;;;;;;;;5019098;28;20198;-55
2023/08/02 11:07:18;;;;;;;3.77;1.87;;;;;;;;;;5014915;28;20333;-55
2023/08/02 11:09:45;;;;;;;3.30;2.13;;;;;;;;;;5021512;28;20528;-56
2023/08/02 11:12:14;;;;;;;3.67;2.17;;;;;;;;;;5015597;28;20645;-55
2023/08/02 11:14:41;;;;;;;2.97;2.03;;;;;;;;;;5022928;28;20682;-56
2023/08/02 11:17:07;;;;;;;2.20;2.00;;;;;;;;;;5016479;28;20556;-55
2023/08/02 11:19:34;;;;;;;2.20;2.10;;;;;;;;;;5019996;28;20202;-53
2023/08/02 11:22:00;;;;;;;2.50;1.80;;;;;;;;;;5017114;28;20200;-52
2023/08/02 11:24:27;;;;;;;2.03;1.83;;;;;;;;;;5008086;28;20674;-52
2023/08/02 11:26:57;;;;;;;1.80;1.70;;;;;;;;;;5004495;28;20194;-52
2023/08/02 11:29:23;;;;;;;1.80;1.70;;;;;;;;;;5020862;28;20720;-52
2023/08/02 11:31:51;;;;;;;2.50;1.53;;;;;;;;;;5019390;28;20275;-53
2023/08/02 11:34:18;;;;;;;1.80;1.70;;;;;;;;;;5022702;28;20682;-52
2023/08/02 11:36:47;;;;;;;1.80;1.70;;;;;;;;;;5025287;28;20240;-52
2023/08/02 11:39:14;;;;;;;1.70;1.60;;;;;;;;;;5024085;28;20496;-55
2023/08/02 11:41:40;;;;;;;1.80;1.70;;;;;;;;;;5007576;28;20222;-56
2023/08/02 11:44:20;;;;;;;1.60;1.50;;;;;;;;;;5017094;28;20575;-57
2023/08/02 11:46:56;;;;;;;1.83;1.73;;;;;;;;;;5016027;28;20665;-56
2023/08/02 11:49:23;;;;;;;2.03;1.93;;;;;;;;;;5014277;28;20213;-56
2023/08/02 11:51:49;;;;;;;2.87;1.97;;;;;;;;;;5020173;28;20215;-54
2023/08/02 11:54:16;;;;;;;3.67;1.60;;;;;;;;;;5007995;28;20196;-54
2023/08/02 11:56:42;;;;;;;2.57;1.53;;;;;;;;;;5020395;28;20197;-55
2023/08/02 11:59:12;;;;;;;2.53;1.70;;;;;;;;;;5015355;28;20189;-56
2023/08/02 12:01:42;;;;;;;1.93;1.60;;;;;;;;;;5020100;28;20194;-56
2023/08/02 12:04:09;;;;;;;1.77;1.37;;;;;;;;;;5023634;28;20772;-56
2023/08/02 12:06:47;;;;;;;2.07;1.70;;;;;;;;;;5020833;28;20209;-53
2023/08/02 12:09:14;;;;;;;1.50;1.40;;;;;;;;;;5020717;28;20220;-52
2023/08/02 12:11:40;;;;;;;2.03;1.50;;;;;;;;;;5018740;28;20204;-53
2023/08/02 12:14:06;;;;;;;1.63;1.53;;;;;;;;;;5022689;28;20785;-53
2023/08/02 12:16:44;;;;;;;1.50;1.40;;;;;;;;;;5020378;28;20194;-54
2023/08/02 12:19:11;;;;;;;1.63;1.50;;;;;;;;;;5018742;28;20198;-53
2023/08/02 12:21:38;;;;;;;2.30;2.20;;;;;;;;;;5016290;28;20671;-53
2023/08/02 12:24:14;;;;;;;1.50;1.40;;;;;;;;;;5019990;28;20279;-53
2023/08/02 12:26:41;;;;;;;2.83;1.57;;;;;;;;;;5011532;28;20680;-52
2023/08/02 12:29:07;;;;;;;1.50;1.40;;;;;;;;;;5017786;28;20233;-52
2023/08/02 12:31:43;;;;;;;2.03;1.57;;;;;;;;;;5017095;28;20548;-54
2023/08/02 12:34:10;;;;;;;1.97;1.63;;;;;;;;;;5022197;28;20292;-52
2023/08/02 12:36:37;;;;;;;1.73;1.40;;;;;;;;;;5017731;28;20226;-52
2023/08/02 12:39:04;;;;;;;1.40;1.30;;;;;;;;;;5019708;28;20742;-52
2023/08/02 12:41:30;;;;;;;1.67;1.40;;;;;;;;;;5022762;28;20308;-52
2023/08/02 12:43:57;;;;;;;1.80;1.70;;;;;;;;;;5017601;28;20192;-52
2023/08/02 12:46:23;;;;;;;4.70;2.30;;;;;;;;;;5018237;28;20196;-51
2023/08/02 12:48:51;;;;;;;2.73;1.90;;;;;;;;;;5017698;28;20545;-54
2023/08/02 12:51:17;;;;;;;2.10;1.90;;;;;;;;;;5022612;28;20186;-54
2023/08/02 12:53:43;;;;;;;2.80;1.97;;;;;;;;;;5012085;28;20927;-56
2023/08/02 12:56:09;;;;;;;1.60;1.50;;;;;;;;;;5023512;28;20181;-56
2023/08/02 12:58:35;;;;;;;3.40;2.40;;;;;;;;;;5016405;28;20189;-57
2023/08/02 13:01:01;;;;;;;3.03;1.80;;;;;;;;;;5019380;28;20509;-57
2023/08/02 13:03:27;;;;;;;2.40;1.80;;;;;;;;;;5021734;28;20182;-55
2023/08/02 13:05:53;;;;;;;3.37;2.23;;;;;;;;;;5022468;28;20184;-56
2023/08/02 13:08:19;;;;;;;6.13;2.20;;;;;;;;;;5025252;28;20191;-57
2023/08/02 13:10:45;;;;;;;2.30;1.97;;;;;;;;;;5022291;28;20222;-56
2023/08/02 13:13:11;;;;;;;3.33;2.03;;;;;;;;;;5028224;28;20187;-57
2023/08/02 13:15:37;;;;;;;2.30;2.00;;;;;;;;;;5020227;28;20277;-57
2023/08/02 13:18:03;;;;;;;5.10;2.10;;;;;;;;;;5027671;28;20208;-57
2023/08/02 13:20:29;;;;;;;3.50;2.00;;;;;;;;;;5026529;28;20203;-54
2023/08/02 13:22:56;;;;;;;4.77;2.07;;;;;;;;;;5027989;28;20212;-56
2023/08/02 13:25:22;;;;;;;2.43;1.80;;;;;;;;;;5022621;28;20196;-56
2023/08/02 13:27:48;;;;;;;3.10;1.87;;;;;;;;;;5018817;28;20267;-56
2023/08/02 13:30:14;;;;;;;2.70;2.17;;;;;;;;;;5023786;28;20699;-55
2023/08/02 13:32:40;;;;;;;4.27;2.40;;;;;;;;;;5028774;28;20247;-56
2023/08/02 13:35:08;;;;;;;3.90;2.33;;;;;;;;;;5028889;28;20224;-56
2023/08/02 13:37:34;;;;;;;6.23;2.57;;;;;;;;;;5027490;28;20200;-56
2023/08/02 13:40:01;;;;;;;3.53;2.23;;;;;;;;;;5018871;28;20199;-56
2023/08/02 13:42:28;;;;;;;3.63;2.73;;;;;;;;;;5025928;28;20204;-56
2023/08/02 13:44:55;;;;;;;3.13;2.83;;;;;;;;;;5027323;28;20187;-57
2023/08/02 13:47:21;;;;;;;4.60;2.83;;;;;;;;;;5015279;28;20182;-56
2023/08/02 13:49:48;;;;;;;7.80;2.97;;;;;;;;;;5025754;28;20206;-56
2023/08/02 13:52:14;;;;;;;3.30;2.30;;;;;;;;;;5005697;28;20188;-56
2023/08/02 13:54:40;;;;;;;2.93;2.27;;;;;;;;;;5025475;28;20291;-61
2023/08/02 13:57:07;;;;;;;2.83;2.10;;;;;;;;;;5007986;28;20198;-55
2023/08/02 13:59:33;;;;;;;4.80;2.50;;;;;;;;;;5026017;28;20194;-53
2023/08/02 14:01:59;;;;;;;5.23;2.43;;;;;;;;;;5024813;28;20296;-53
2023/08/02 14:04:25;;;;;;;3.97;2.23;;;;;;;;;;5021543;28;20701;-53
2023/08/02 14:06:52;;;;;;;6.73;2.83;;;;;;;;;;5022317;28;20720;-53
2023/08/02 14:09:19;;;;;;;6.07;3.17;;;;;;;;;;5025621;28;20209;-53
2023/08/02 14:11:46;;;;;;;7.10;3.47;;;;;;;;;;5024228;28;20192;-53
2023/08/02 14:14:12;;;;;;;6.77;2.73;;;;;;;;;;5028097;28;20194;-53
2023/08/02 14:16:38;;;;;;;4.97;2.70;;;;;;;;;;5020177;28;20192;-53
2023/08/02 14:19:05;;;;;;;6.90;3.50;;;;;;;;;;5007500;28;20283;-54
2023/08/02 14:21:31;;;;;;;10.43;4.90;;;;;;;;;;5022499;28;20306;-53
2023/08/02 14:23:57;;;;;;;9.53;4.93;;;;;;;;;;5016419;28;20198;-52
2023/08/02 14:26:26;;;;;;;6.53;3.80;;;;;;;;;;5019185;28;20203;-53
2023/08/02 14:28:53;;;;;;;7.20;3.40;;;;;;;;;;5019826;28;20184;-53
2023/08/02 14:31:20;;;;;;;6.70;3.20;;;;;;;;;;5020845;28;20216;-53
2023/08/02 14:33:46;;;;;;;6.20;2.93;;;;;;;;;;5018652;28;21065;-54
2023/08/02 14:36:12;;;;;;;4.00;2.20;;;;;;;;;;5023184;28;20707;-52
2023/08/02 14:38:39;;;;;;;4.20;2.43;;;;;;;;;;5019972;28;20196;-52
2023/08/02 14:41:05;;;;;;;5.93;2.50;;;;;;;;;;5022892;28;20189;-53
2023/08/02 14:43:32;;;;;;;2.73;2.43;;;;;;;;;;5021965;28;20190;-54
2023/08/02 14:45:58;;;;;;;2.97;2.50;;;;;;;;;;5023851;28;20219;-54
2023/08/02 14:48:24;;;;;;;5.63;2.60;;;;;;;;;;5018802;28;20269;-53